Terminal Aerodrome Forecast
Issued by NWS

Home | Current Version | Previous Version | Text Only | Print | Product List | Glossary Off
Versions: 1 2 3 4 5 6 7 8 9 10 11 12 13 14 15 16 17

315
FTUS43 KTOP 140520
TAFFOE
TAF
KFOE 140520Z 1406/1506 12012KT P6SM SCT060
     FM141100 17008KT P6SM VCSH BKN025
     FM141400 24008KT P6SM SCT025 BKN050
     FM142100 32007KT P6SM BKN050=

USA.gov is the U.S. government's official web portal to all federal, state and local government web resources and services.